Auroraville, Wisconsin
Current Conditions -  °F | °C
As of 11:20 AM on Thursday 27 Nov 2014 (Local Time) from KY50 Reporting Station
Broken Clouds Broken Clouds  
Wind Chill: -15°   Ceiling: 1800
Heat Index: -9°   Visibility: 10mi
Dew Point: -14°   Wind: 9mph
Humidity: 68%   Direction: 340°NNW
Pressure: 30.38"   Gusts: NA
Location:  43.9938°N, 88.9686°W
Report Text: KY50 271720Z AUTO 34008KT 10SM FEW009 SCT014 BKN018 M09/M14 A3038 RMK AO2 TSNO
Loading
Personal Weather Stations






























Interactive Weather Map New forecast layout! Learn more

10-Day Weather Forecast

Advertisements
Track Severe Weather on mobile